Terminal Aerodrome Forecast
Issued by NWS

Home | Current Version | Previous Version | Text Only | Print | Product List | Glossary On
Versions: 1 2 3 4 5 6 7 8 9 10 11 12
000
FTUS45 KBOI 230540
TAFJER
TAF
KJER 230540Z 2306/2406 VRB06KT P6SM VCSH OVC020
     FM230700 25015G25KT 1SM -SN BLSN OVC009
     FM231700 26022G34KT 2SM -SN BLSN OVC009
     FM240200 24015G25KT 6SM BLSN VCSH OVC009
      AMD NOT SKED=

USA.gov is the U.S. government's official web portal to all federal, state and local government web resources and services.